sensor_id;sensor_type;location;lat;lon;timestamp;pressure;altitude;pressure_sealevel;temperature;humidity
60061;BME280;45933;51.336;12.612;2023-12-20T00:01:35;99497.22;;;6.76;69.28
60061;BME280;45933;51.336;12.612;2023-12-20T00:04:01;99495.50;;;6.78;69.20
60061;BME280;45933;51.336;12.612;2023-12-20T00:06:26;99488.59;;;6.77;68.73
60061;BME280;45933;51.336;12.612;2023-12-20T00:08:51;99487.72;;;6.79;68.81
60061;BME280;45933;51.336;12.612;2023-12-20T00:11:16;99484.28;;;6.77;69.04
60061;BME280;45933;51.336;12.612;2023-12-20T00:13:42;99475.66;;;6.77;69.06
60061;BME280;45933;51.336;12.612;2023-12-20T00:16:07;99478.22;;;6.74;69.58
60061;BME280;45933;51.336;12.612;2023-12-20T00:18:32;99475.66;;;6.77;69.21
60061;BME280;45933;51.336;12.612;2023-12-20T00:20:57;99473.91;;;6.73;69.30
60061;BME280;45933;51.336;12.612;2023-12-20T00:23:23;99468.72;;;6.77;68.62
60061;BME280;45933;51.336;12.612;2023-12-20T00:25:49;99469.59;;;6.69;69.95
60061;BME280;45933;51.336;12.612;2023-12-20T00:28:14;99470.44;;;6.69;69.47
60061;BME280;45933;51.336;12.612;2023-12-20T00:30:39;99460.13;;;6.75;68.44
60061;BME280;45933;51.336;12.612;2023-12-20T00:33:04;99471.31;;;6.73;68.73
60061;BME280;45933;51.336;12.612;2023-12-20T00:35:30;99465.28;;;6.68;69.32
60061;BME280;45933;51.336;12.612;2023-12-20T00:37:55;99460.09;;;6.71;68.97
60061;BME280;45933;51.336;12.612;2023-12-20T00:40:20;99455.78;;;6.68;69.11
60061;BME280;45933;51.336;12.612;2023-12-20T00:42:46;99456.63;;;6.69;69.34
60061;BME280;45933;51.336;12.612;2023-12-20T00:45:12;99453.19;;;6.64;69.36
60061;BME280;45933;51.336;12.612;2023-12-20T00:47:37;99452.31;;;6.59;69.65
60061;BME280;45933;51.336;12.612;2023-12-20T00:50:02;99448.00;;;6.67;69.39
60061;BME280;45933;51.336;12.612;2023-12-20T00:52:28;99449.75;;;6.66;69.12
60061;BME280;45933;51.336;12.612;2023-12-20T00:54:53;99455.75;;;6.64;70.15
60061;BME280;45933;51.336;12.612;2023-12-20T00:57:19;99450.63;;;6.65;69.12
60061;BME280;45933;51.336;12.612;2023-12-20T00:59:44;99448.00;;;6.62;69.77
60061;BME280;45933;51.336;12.612;2023-12-20T01:02:09;99444.53;;;6.59;69.73
60061;BME280;45933;51.336;12.612;2023-12-20T01:04:35;99443.69;;;6.53;69.67
60061;BME280;45933;51.336;12.612;2023-12-20T01:07:00;99446.28;;;6.63;69.30
60061;BME280;45933;51.336;12.612;2023-12-20T01:09:25;99441.94;;;6.59;69.52
60061;BME280;45933;51.336;12.612;2023-12-20T01:11:53;99432.47;;;6.58;69.47
60061;BME280;45933;51.336;12.612;2023-12-20T01:14:19;99442.84;;;6.59;69.50
60061;BME280;45933;51.336;12.612;2023-12-20T01:16:44;99445.44;;;6.59;69.13
60061;BME280;45933;51.336;12.612;2023-12-20T01:19:10;99450.59;;;6.51;70.03
60061;BME280;45933;51.336;12.612;2023-12-20T01:21:35;99448.03;;;6.59;68.86
60061;BME280;45933;51.336;12.612;2023-12-20T01:24:00;99442.84;;;6.56;69.48
60061;BME280;45933;51.336;12.612;2023-12-20T01:26:25;99445.41;;;6.56;69.80
60061;BME280;45933;51.336;12.612;2023-12-20T01:28:51;99431.59;;;6.57;69.25
60061;BME280;45933;51.336;12.612;2023-12-20T01:31:16;99431.59;;;6.59;69.29
60061;BME280;45933;51.336;12.612;2023-12-20T01:33:41;99429.91;;;6.59;69.36
60061;BME280;45933;51.336;12.612;2023-12-20T01:36:07;99423.84;;;6.54;69.84
60061;BME280;45933;51.336;12.612;2023-12-20T01:38:32;99423.84;;;6.57;69.48
60061;BME280;45933;51.336;12.612;2023-12-20T01:40:57;99420.41;;;6.55;69.79
60061;BME280;45933;51.336;12.612;2023-12-20T01:43:23;99426.41;;;6.59;69.19
60061;BME280;45933;51.336;12.612;2023-12-20T01:45:48;99415.22;;;6.60;69.12
60061;BME280;45933;51.336;12.612;2023-12-20T01:48:14;99404.84;;;6.55;69.64
60061;BME280;45933;51.336;12.612;2023-12-20T01:50:41;99422.13;;;6.56;69.70
60061;BME280;45933;51.336;12.612;2023-12-20T01:53:09;99402.28;;;6.55;69.68
60061;BME280;45933;51.336;12.612;2023-12-20T01:55:36;99410.03;;;6.57;69.27
60061;BME280;45933;51.336;12.612;2023-12-20T01:58:04;99406.59;;;6.56;69.23
60061;BME280;45933;51.336;12.612;2023-12-20T02:00:30;99407.44;;;6.52;69.99
60061;BME280;45933;51.336;12.612;2023-12-20T02:03:00;99407.44;;;6.53;69.41
60061;BME280;45933;51.336;12.612;2023-12-20T02:05:26;99406.59;;;6.56;69.21
60061;BME280;45933;51.336;12.612;2023-12-20T02:07:53;99408.31;;;6.49;69.61
60061;BME280;45933;51.336;12.612;2023-12-20T02:10:18;99416.91;;;6.48;70.04
60061;BME280;45933;51.336;12.612;2023-12-20T02:12:43;99409.19;;;6.50;69.83
60061;BME280;45933;51.336;12.612;2023-12-20T02:15:09;99404.84;;;6.55;69.42
60061;BME280;45933;51.336;12.612;2023-12-20T02:17:35;99416.94;;;6.56;69.23
60061;BME280;45933;51.336;12.612;2023-12-20T02:20:00;99402.25;;;6.52;69.64
60061;BME280;45933;51.336;12.612;2023-12-20T02:22:26;99398.81;;;6.53;69.27
60061;BME280;45933;51.336;12.612;2023-12-20T02:24:51;99397.09;;;6.55;69.41
60061;BME280;45933;51.336;12.612;2023-12-20T02:27:17;99392.75;;;6.57;69.48
60061;BME280;45933;51.336;12.612;2023-12-20T02:29:46;99394.50;;;6.60;68.96
60061;BME280;45933;51.336;12.612;2023-12-20T02:32:12;99396.22;;;6.58;69.05
60061;BME280;45933;51.336;12.612;2023-12-20T02:34:37;99382.41;;;6.55;69.25
60061;BME280;45933;51.336;12.612;2023-12-20T02:37:03;99386.72;;;6.50;69.43
60061;BME280;45933;51.336;12.612;2023-12-20T02:39:28;99393.63;;;6.53;69.63
60061;BME280;45933;51.336;12.612;2023-12-20T02:41:53;99390.19;;;6.55;68.98
60061;BME280;45933;51.336;12.612;2023-12-20T02:44:18;99386.72;;;6.55;69.38
60061;BME280;45933;51.336;12.612;2023-12-20T02:46:44;99385.88;;;6.56;69.12
60061;BME280;45933;51.336;12.612;2023-12-20T02:49:09;99388.47;;;6.54;69.21
60061;BME280;45933;51.336;12.612;2023-12-20T02:51:34;99386.72;;;6.52;69.59
60061;BME280;45933;51.336;12.612;2023-12-20T02:54:03;99391.03;;;6.51;69.56
60061;BME280;45933;51.336;12.612;2023-12-20T02:56:28;99386.72;;;6.53;69.47
60061;BME280;45933;51.336;12.612;2023-12-20T02:58:53;99391.91;;;6.52;69.54
60061;BME280;45933;51.336;12.612;2023-12-20T03:01:19;99391.03;;;6.53;69.80
60061;BME280;45933;51.336;12.612;2023-12-20T03:03:44;99377.22;;;6.51;69.64
60061;BME280;45933;51.336;12.612;2023-12-20T03:06:10;99376.38;;;6.52;69.71
60061;BME280;45933;51.336;12.612;2023-12-20T03:08:35;99375.50;;;6.53;69.91
60061;BME280;45933;51.336;12.612;2023-12-20T03:11:00;99365.16;;;6.54;69.46
60061;BME280;45933;51.336;12.612;2023-12-20T03:13:25;99368.59;;;6.52;69.46
60061;BME280;45933;51.336;12.612;2023-12-20T03:15:51;99369.47;;;6.49;69.98
60061;BME280;45933;51.336;12.612;2023-12-20T03:18:16;99365.16;;;6.54;69.36
60061;BME280;45933;51.336;12.612;2023-12-20T03:20:42;99361.69;;;6.52;69.78
60061;BME280;45933;51.336;12.612;2023-12-20T03:23:07;99371.19;;;6.53;69.57
60061;BME280;45933;51.336;12.612;2023-12-20T03:25:32;99374.66;;;6.51;70.18
60061;BME280;45933;51.336;12.612;2023-12-20T03:27:57;99361.72;;;6.54;69.52
60061;BME280;45933;51.336;12.612;2023-12-20T03:30:23;99372.91;;;6.53;70.03
60061;BME280;45933;51.336;12.612;2023-12-20T03:32:48;99372.91;;;6.56;69.18
60061;BME280;45933;51.336;12.612;2023-12-20T03:35:13;99358.25;;;6.55;69.77
60061;BME280;45933;51.336;12.612;2023-12-20T03:37:38;99360.81;;;6.53;69.93
60061;BME280;45933;51.336;12.612;2023-12-20T03:40:04;99361.72;;;6.54;69.87
60061;BME280;45933;51.336;12.612;2023-12-20T03:42:30;99359.97;;;6.50;70.23
60061;BME280;45933;51.336;12.612;2023-12-20T03:44:55;99368.59;;;6.53;69.94
60061;BME280;45933;51.336;12.612;2023-12-20T03:47:21;99372.91;;;6.53;69.64
60061;BME280;45933;51.336;12.612;2023-12-20T03:49:46;99375.50;;;6.50;70.44
60061;BME280;45933;51.336;12.612;2023-12-20T03:52:12;99378.97;;;6.49;70.56
60061;BME280;45933;51.336;12.612;2023-12-20T03:54:37;99363.41;;;6.52;70.15
60061;BME280;45933;51.336;12.612;2023-12-20T03:57:03;99352.22;;;6.50;70.32
60061;BME280;45933;51.336;12.612;2023-12-20T03:59:28;99357.38;;;6.51;70.10
60061;BME280;45933;51.336;12.612;2023-12-20T04:01:53;99372.03;;;6.52;70.12
60061;BME280;45933;51.336;12.612;2023-12-20T04:04:19;99368.59;;;6.52;70.15
60061;BME280;45933;51.336;12.612;2023-12-20T04:06:44;99369.47;;;6.54;69.86
60061;BME280;45933;51.336;12.612;2023-12-20T04:09:09;99368.59;;;6.52;70.71
60061;BME280;45933;51.336;12.612;2023-12-20T04:11:35;99373.78;;;6.55;69.85
60061;BME280;45933;51.336;12.612;2023-12-20T04:14:01;99374.66;;;6.55;69.81
60061;BME280;45933;51.336;12.612;2023-12-20T04:16:26;99374.66;;;6.49;70.33
60061;BME280;45933;51.336;12.612;2023-12-20T04:18:54;99362.56;;;6.54;70.32
60061;BME280;45933;51.336;12.612;2023-12-20T04:21:19;99366.88;;;6.54;70.08
60061;BME280;45933;51.336;12.612;2023-12-20T04:23:45;99369.47;;;6.54;70.27
60061;BME280;45933;51.336;12.612;2023-12-20T04:26:10;99369.47;;;6.54;70.18
60061;BME280;45933;51.336;12.612;2023-12-20T04:28:35;99379.81;;;6.55;70.13
60061;BME280;45933;51.336;12.612;2023-12-20T04:31:00;99379.81;;;6.55;70.34
60061;BME280;45933;51.336;12.612;2023-12-20T04:33:26;99377.22;;;6.52;70.60
60061;BME280;45933;51.336;12.612;2023-12-20T04:35:51;99379.84;;;6.54;70.37
60061;BME280;45933;51.336;12.612;2023-12-20T04:38:16;99372.06;;;6.54;70.47
60061;BME280;45933;51.336;12.612;2023-12-20T04:40:41;99381.53;;;6.57;70.28
60061;BME280;45933;51.336;12.612;2023-12-20T04:43:07;99382.41;;;6.57;70.19
60061;BME280;45933;51.336;12.612;2023-12-20T04:45:34;99366.88;;;6.54;70.49
60061;BME280;45933;51.336;12.612;2023-12-20T04:47:59;99368.59;;;6.57;70.49
60061;BME280;45933;51.336;12.612;2023-12-20T04:50:24;99380.69;;;6.58;70.23
60061;BME280;45933;51.336;12.612;2023-12-20T04:52:50;99360.84;;;6.55;70.26
60061;BME280;45933;51.336;12.612;2023-12-20T04:55:16;99372.06;;;6.55;70.52
60061;BME280;45933;51.336;12.612;2023-12-20T04:57:41;99378.97;;;6.57;70.43
60061;BME280;45933;51.336;12.612;2023-12-20T05:00:07;99380.69;;;6.59;70.88
60061;BME280;45933;51.336;12.612;2023-12-20T05:02:34;99390.19;;;6.60;70.42
60061;BME280;45933;51.336;12.612;2023-12-20T05:04:59;99386.72;;;6.63;70.31
60061;BME280;45933;51.336;12.612;2023-12-20T05:07:25;99378.97;;;6.61;70.37
60061;BME280;45933;51.336;12.612;2023-12-20T05:09:50;99387.56;;;6.63;70.45
60061;BME280;45933;51.336;12.612;2023-12-20T05:12:15;99396.22;;;6.65;70.36
60061;BME280;45933;51.336;12.612;2023-12-20T05:14:40;99392.75;;;6.63;70.23
60061;BME280;45933;51.336;12.612;2023-12-20T05:17:06;99405.69;;;6.68;70.08
60061;BME280;45933;51.336;12.612;2023-12-20T05:19:31;99395.34;;;6.68;70.06
60061;BME280;45933;51.336;12.612;2023-12-20T05:22:00;99400.53;;;6.66;70.53
60061;BME280;45933;51.336;12.612;2023-12-20T05:24:25;99409.16;;;6.71;69.96
60061;BME280;45933;51.336;12.612;2023-12-20T05:26:50;99390.19;;;6.71;69.96
60061;BME280;45933;51.336;12.612;2023-12-20T05:29:16;99412.63;;;6.70;70.34
60061;BME280;45933;51.336;12.612;2023-12-20T05:31:42;99414.34;;;6.71;70.15
60061;BME280;45933;51.336;12.612;2023-12-20T05:34:07;99405.69;;;6.68;70.61
60061;BME280;45933;51.336;12.612;2023-12-20T05:36:33;99411.75;;;6.71;70.61
60061;BME280;45933;51.336;12.612;2023-12-20T05:38:58;99407.44;;;6.72;70.46
60061;BME280;45933;51.336;12.612;2023-12-20T05:41:23;99404.84;;;6.73;70.35
60061;BME280;45933;51.336;12.612;2023-12-20T05:43:49;99415.19;;;6.78;70.11
60061;BME280;45933;51.336;12.612;2023-12-20T05:46:14;99405.69;;;6.78;69.98
60061;BME280;45933;51.336;12.612;2023-12-20T05:48:39;99426.41;;;6.80;70.45
60061;BME280;45933;51.336;12.612;2023-12-20T05:51:04;99429.88;;;6.82;70.15
60061;BME280;45933;51.336;12.612;2023-12-20T05:53:30;99428.16;;;6.81;70.66
60061;BME280;45933;51.336;12.612;2023-12-20T05:55:55;99431.59;;;6.83;70.66
60061;BME280;45933;51.336;12.612;2023-12-20T05:58:20;99439.34;;;6.85;69.93
60061;BME280;45933;51.336;12.612;2023-12-20T06:00:46;99443.69;;;6.84;70.38
60061;BME280;45933;51.336;12.612;2023-12-20T06:03:11;99443.69;;;6.86;70.21
60061;BME280;45933;51.336;12.612;2023-12-20T06:05:36;99444.56;;;6.88;69.54
60061;BME280;45933;51.336;12.612;2023-12-20T06:08:01;99442.84;;;6.87;70.11
60061;BME280;45933;51.336;12.612;2023-12-20T06:10:28;99441.09;;;6.84;70.06
60061;BME280;45933;51.336;12.612;2023-12-20T06:12:53;99435.03;;;6.84;70.40
60061;BME280;45933;51.336;12.612;2023-12-20T06:15:19;99446.28;;;6.86;69.99
60061;BME280;45933;51.336;12.612;2023-12-20T06:17:44;99424.69;;;6.84;69.88
60061;BME280;45933;51.336;12.612;2023-12-20T06:20:11;99427.28;;;6.84;69.92
60061;BME280;45933;51.336;12.612;2023-12-20T06:22:37;99430.72;;;6.84;69.88
60061;BME280;45933;51.336;12.612;2023-12-20T06:25:02;99426.41;;;6.83;70.04
60061;BME280;45933;51.336;12.612;2023-12-20T06:27:28;99432.47;;;6.80;69.98
60061;BME280;45933;51.336;12.612;2023-12-20T06:29:54;99447.16;;;6.83;69.99
60061;BME280;45933;51.336;12.612;2023-12-20T06:32:19;99446.28;;;6.81;70.12
60061;BME280;45933;51.336;12.612;2023-12-20T06:34:44;99446.28;;;6.81;69.75
60061;BME280;45933;51.336;12.612;2023-12-20T06:37:09;99440.25;;;6.80;69.62
60061;BME280;45933;51.336;12.612;2023-12-20T06:39:35;99441.09;;;6.78;69.67
60061;BME280;45933;51.336;12.612;2023-12-20T06:42:00;99441.13;;;6.75;69.58
60061;BME280;45933;51.336;12.612;2023-12-20T06:44:25;99437.66;;;6.76;68.96
60061;BME280;45933;51.336;12.612;2023-12-20T06:46:51;99437.66;;;6.71;68.91
60061;BME280;45933;51.336;12.612;2023-12-20T06:49:16;99429.03;;;6.66;68.82
60061;BME280;45933;51.336;12.612;2023-12-20T06:51:41;99430.75;;;6.57;69.51
60061;BME280;45933;51.336;12.612;2023-12-20T06:54:06;99431.59;;;6.51;69.62
60061;BME280;45933;51.336;12.612;2023-12-20T06:56:32;99432.47;;;6.47;69.42
60061;BME280;45933;51.336;12.612;2023-12-20T06:58:57;99424.69;;;6.41;69.83
60061;BME280;45933;51.336;12.612;2023-12-20T07:01:22;99417.81;;;6.40;69.00
60061;BME280;45933;51.336;12.612;2023-12-20T07:03:48;99429.88;;;6.35;69.16
60061;BME280;45933;51.336;12.612;2023-12-20T07:06:13;99435.91;;;6.27;69.64
60061;BME280;45933;51.336;12.612;2023-12-20T07:08:41;99430.72;;;6.23;69.71
60061;BME280;45933;51.336;12.612;2023-12-20T07:11:06;99441.91;;;6.22;69.61
60061;BME280;45933;51.336;12.612;2023-12-20T07:13:31;99441.09;;;6.23;69.46
60061;BME280;45933;51.336;12.612;2023-12-20T07:15:57;99428.13;;;6.20;69.88
60061;BME280;45933;51.336;12.612;2023-12-20T07:18:22;99422.06;;;6.16;69.95
60061;BME280;45933;51.336;12.612;2023-12-20T07:20:47;99428.09;;;6.11;70.13
60061;BME280;45933;51.336;12.612;2023-12-20T07:23:13;99424.66;;;6.07;70.34
60061;BME280;45933;51.336;12.612;2023-12-20T07:25:38;99411.75;;;6.12;69.85
60061;BME280;45933;51.336;12.612;2023-12-20T07:28:03;99418.63;;;6.07;70.52
60061;BME280;45933;51.336;12.612;2023-12-20T07:30:29;99414.31;;;6.13;69.99
60061;BME280;45933;51.336;12.612;2023-12-20T07:32:54;99426.38;;;6.05;70.28
60061;BME280;45933;51.336;12.612;2023-12-20T07:35:19;99426.38;;;6.10;70.25
60061;BME280;45933;51.336;12.612;2023-12-20T07:37:45;99433.28;;;6.17;69.60
60061;BME280;45933;51.336;12.612;2023-12-20T07:40:10;99442.78;;;6.18;69.30
60061;BME280;45933;51.336;12.612;2023-12-20T07:42:35;99443.66;;;6.21;69.05
60061;BME280;45933;51.336;12.612;2023-12-20T07:45:01;99460.91;;;6.24;68.47
60061;BME280;45933;51.336;12.612;2023-12-20T07:47:26;99464.38;;;6.24;68.22
60061;BME280;45933;51.336;12.612;2023-12-20T07:49:51;99461.78;;;6.29;67.85
60061;BME280;45933;51.336;12.612;2023-12-20T07:52:17;99461.78;;;6.29;67.48
60061;BME280;45933;51.336;12.612;2023-12-20T07:54:43;99453.16;;;6.36;67.45
60061;BME280;45933;51.336;12.612;2023-12-20T07:57:09;99453.16;;;6.35;67.21
60061;BME280;45933;51.336;12.612;2023-12-20T07:59:35;99458.34;;;6.41;66.92
60061;BME280;45933;51.336;12.612;2023-12-20T08:02:01;99466.13;;;6.47;66.53
60061;BME280;45933;51.336;12.612;2023-12-20T08:04:26;99471.31;;;6.50;66.20
60061;BME280;45933;51.336;12.612;2023-12-20T08:06:51;99471.31;;;6.51;66.39
60061;BME280;45933;51.336;12.612;2023-12-20T08:09:16;99467.84;;;6.52;66.47
60061;BME280;45933;51.336;12.612;2023-12-20T08:11:48;99461.81;;;6.55;66.05
60061;BME280;45933;51.336;12.612;2023-12-20T08:14:15;99465.28;;;6.49;66.31
60061;BME280;45933;51.336;12.612;2023-12-20T08:16:40;99454.94;;;6.54;66.24
60061;BME280;45933;51.336;12.612;2023-12-20T08:19:05;99454.03;;;6.53;66.10
60061;BME280;45933;51.336;12.612;2023-12-20T08:21:30;99448.88;;;6.57;66.08
60061;BME280;45933;51.336;12.612;2023-12-20T08:23:56;99454.06;;;6.57;65.62
60061;BME280;45933;51.336;12.612;2023-12-20T08:26:21;99448.00;;;6.58;65.67
60061;BME280;45933;51.336;12.612;2023-12-20T08:28:48;99455.78;;;6.59;65.33
60061;BME280;45933;51.336;12.612;2023-12-20T08:31:14;99457.50;;;6.59;64.85
60061;BME280;45933;51.336;12.612;2023-12-20T08:33:41;99454.91;;;6.63;65.09
60061;BME280;45933;51.336;12.612;2023-12-20T08:36:06;99459.25;;;6.66;65.23
60061;BME280;45933;51.336;12.612;2023-12-20T08:38:31;99453.19;;;6.64;65.14
60061;BME280;45933;51.336;12.612;2023-12-20T08:40:56;99460.97;;;6.65;64.98
60061;BME280;45933;51.336;12.612;2023-12-20T08:43:22;99455.78;;;6.73;65.43
60061;BME280;45933;51.336;12.612;2023-12-20T08:45:47;99465.28;;;6.74;65.21
60061;BME280;45933;51.336;12.612;2023-12-20T08:48:12;99460.09;;;6.80;65.49
60061;BME280;45933;51.336;12.612;2023-12-20T08:50:37;99454.94;;;6.86;65.10
60061;BME280;45933;51.336;12.612;2023-12-20T08:53:03;99454.03;;;6.84;65.16
60061;BME280;45933;51.336;12.612;2023-12-20T08:55:29;99461.81;;;6.90;64.95
60061;BME280;45933;51.336;12.612;2023-12-20T08:57:56;99449.72;;;6.98;64.90
60061;BME280;45933;51.336;12.612;2023-12-20T09:00:21;99454.03;;;7.01;65.12
60061;BME280;45933;51.336;12.612;2023-12-20T09:02:49;99470.47;;;7.01;64.61
60061;BME280;45933;51.336;12.612;2023-12-20T09:05:14;99462.66;;;7.04;64.53
60061;BME280;45933;51.336;12.612;2023-12-20T09:07:40;99455.75;;;7.05;64.46
60061;BME280;45933;51.336;12.612;2023-12-20T09:10:05;99453.16;;;7.03;64.41
60061;BME280;45933;51.336;12.612;2023-12-20T09:12:30;99454.91;;;7.07;64.95
60061;BME280;45933;51.336;12.612;2023-12-20T09:14:56;99456.63;;;7.13;64.65
60061;BME280;45933;51.336;12.612;2023-12-20T09:17:21;99460.94;;;7.03;63.87
60061;BME280;45933;51.336;12.612;2023-12-20T09:19:48;99456.59;;;7.21;63.53
60061;BME280;45933;51.336;12.612;2023-12-20T09:22:13;99448.81;;;7.33;64.09
60061;BME280;45933;51.336;12.612;2023-12-20T09:24:39;99451.38;;;7.41;63.26
60061;BME280;45933;51.336;12.612;2023-12-20T09:27:05;99459.09;;;7.53;63.82
60061;BME280;45933;51.336;12.612;2023-12-20T09:29:30;99466.81;;;7.70;63.40
60061;BME280;45933;51.336;12.612;2023-12-20T09:31:56;99467.66;;;7.76;63.03
60061;BME280;45933;51.336;12.612;2023-12-20T09:34:22;99448.59;;;7.83;61.97
60061;BME280;45933;51.336;12.612;2023-12-20T09:36:48;99448.56;;;7.90;61.80
60061;BME280;45933;51.336;12.612;2023-12-20T09:39:14;99452.03;;;7.90;61.42
60061;BME280;45933;51.336;12.612;2023-12-20T09:41:43;99449.44;;;7.92;61.27
60061;BME280;45933;51.336;12.612;2023-12-20T09:44:14;99447.69;;;7.97;60.92
60061;BME280;45933;51.336;12.612;2023-12-20T09:46:43;99433.84;;;7.90;61.42
60061;BME280;45933;51.336;12.612;2023-12-20T09:49:08;99430.41;;;7.91;60.96
60061;BME280;45933;51.336;12.612;2023-12-20T09:51:35;99446.88;;;7.87;61.23
60061;BME280;45933;51.336;12.612;2023-12-20T09:54:03;99438.13;;;8.00;61.61
60061;BME280;45933;51.336;12.612;2023-12-20T09:56:29;99438.06;;;8.14;61.21
60061;BME280;45933;51.336;12.612;2023-12-20T09:58:54;99430.16;;;8.38;61.25
60061;BME280;45933;51.336;12.612;2023-12-20T10:01:20;99423.88;;;8.66;61.75
60061;BME280;45933;51.336;12.612;2023-12-20T10:03:46;99422.72;;;8.96;61.02
60061;BME280;45933;51.336;12.612;2023-12-20T10:06:11;99419.84;;;9.25;59.32
60061;BME280;45933;51.336;12.612;2023-12-20T10:08:37;99413.44;;;9.55;59.81
60061;BME280;45933;51.336;12.612;2023-12-20T10:11:02;99411.38;;;9.81;57.13
60061;BME280;45933;51.336;12.612;2023-12-20T10:13:29;99418.00;;;10.04;57.14
60061;BME280;45933;51.336;12.612;2023-12-20T10:15:55;99394.50;;;10.07;55.66
60061;BME280;45933;51.336;12.612;2023-12-20T10:18:21;99406.63;;;10.09;55.24
60061;BME280;45933;51.336;12.612;2023-12-20T10:20:46;99396.38;;;9.99;55.12
60061;BME280;45933;51.336;12.612;2023-12-20T10:23:12;99385.28;;;9.84;55.33
60061;BME280;45933;51.336;12.612;2023-12-20T10:25:39;99390.75;;;9.64;55.09
60061;BME280;45933;51.336;12.612;2023-12-20T10:28:14;99382.25;;;9.52;55.63
60061;BME280;45933;51.336;12.612;2023-12-20T10:30:42;99378.84;;;9.43;56.53
60061;BME280;45933;51.336;12.612;2023-12-20T10:33:08;99381.72;;;9.24;56.22
60061;BME280;45933;51.336;12.612;2023-12-20T10:35:35;99365.31;;;9.19;56.48
60061;BME280;45933;51.336;12.612;2023-12-20T10:38:04;99377.50;;;9.13;57.00
60061;BME280;45933;51.336;12.612;2023-12-20T10:40:36;99369.69;;;9.13;57.39
60061;BME280;45933;51.336;12.612;2023-12-20T10:43:02;99367.84;;;9.22;58.08
60061;BME280;45933;51.336;12.612;2023-12-20T10:45:28;99365.91;;;9.40;57.63
60061;BME280;45933;51.336;12.612;2023-12-20T10:47:53;99367.25;;;9.72;57.63
60061;BME280;45933;51.336;12.612;2023-12-20T10:50:19;99353.84;;;9.98;56.18
60061;BME280;45933;51.336;12.612;2023-12-20T10:52:46;99352.44;;;10.36;56.88
60061;BME280;45933;51.336;12.612;2023-12-20T10:55:12;99351.25;;;10.55;53.84
60061;BME280;45933;51.336;12.612;2023-12-20T10:57:38;99343.06;;;10.75;53.45
60061;BME280;45933;51.336;12.612;2023-12-20T11:00:04;99335.00;;;10.89;53.69
60061;BME280;45933;51.336;12.612;2023-12-20T11:02:38;99332.00;;;11.09;53.10
60061;BME280;45933;51.336;12.612;2023-12-20T11:05:31;99327.31;;;11.26;53.12
60061;BME280;45933;51.336;12.612;2023-12-20T11:08:09;99326.00;;;11.47;52.95
60061;BME280;45933;51.336;12.612;2023-12-20T11:10:43;99332.50;;;11.68;52.69
60061;BME280;45933;51.336;12.612;2023-12-20T11:13:30;99327.44;;;11.62;50.91
60061;BME280;45933;51.336;12.612;2023-12-20T11:15:56;99330.13;;;11.57;49.78
60061;BME280;45933;51.336;12.612;2023-12-20T11:18:31;99319.97;;;11.85;49.04
60061;BME280;45933;51.336;12.612;2023-12-20T11:21:01;99306.50;;;12.03;49.67
60061;BME280;45933;51.336;12.612;2023-12-20T11:23:27;99306.88;;;12.22;49.45
60061;BME280;45933;51.336;12.612;2023-12-20T11:25:56;99295.56;;;12.22;48.49
60061;BME280;45933;51.336;12.612;2023-12-20T11:28:25;99316.47;;;12.22;47.03
60061;BME280;45933;51.336;12.612;2023-12-20T11:30:54;99281.91;;;12.11;46.95
60061;BME280;45933;51.336;12.612;2023-12-20T11:33:24;99295.66;;;11.83;46.54
60061;BME280;45933;51.336;12.612;2023-12-20T11:35:49;99286.56;;;11.61;47.45
60061;BME280;45933;51.336;12.612;2023-12-20T11:38:15;99293.06;;;11.41;48.06
60061;BME280;45933;51.336;12.612;2023-12-20T11:40:42;99293.69;;;11.11;48.53
60061;BME280;45933;51.336;12.612;2023-12-20T11:43:07;99283.78;;;10.86;48.67
60061;BME280;45933;51.336;12.612;2023-12-20T11:45:33;99279.75;;;10.68;49.21
60061;BME280;45933;51.336;12.612;2023-12-20T11:48:01;99275.09;;;10.39;50.01
60061;BME280;45933;51.336;12.612;2023-12-20T11:50:27;99282.06;;;10.39;50.22
60061;BME280;45933;51.336;12.612;2023-12-20T11:52:53;99286.63;;;10.25;50.54
60061;BME280;45933;51.336;12.612;2023-12-20T11:55:20;99295.34;;;10.20;50.93
60061;BME280;45933;51.336;12.612;2023-12-20T11:57:45;99281.63;;;10.09;50.70
60061;BME280;45933;51.336;12.612;2023-12-20T12:00:11;99265.25;;;10.03;50.80
60061;BME280;45933;51.336;12.612;2023-12-20T12:02:36;99262.06;;;9.85;50.99
60061;BME280;45933;51.336;12.612;2023-12-20T12:05:02;99262.97;;;9.83;51.22
60061;BME280;45933;51.336;12.612;2023-12-20T12:07:30;99251.91;;;9.68;51.09
60061;BME280;45933;51.336;12.612;2023-12-20T12:09:55;99250.31;;;9.58;51.66
60061;BME280;45933;51.336;12.612;2023-12-20T12:12:20;99261.75;;;9.48;51.65
60061;BME280;45933;51.336;12.612;2023-12-20T12:14:48;99239.44;;;9.32;51.91
60061;BME280;45933;51.336;12.612;2023-12-20T12:17:14;99230.91;;;9.22;51.97
60061;BME280;45933;51.336;12.612;2023-12-20T12:19:41;99229.16;;;9.23;52.82
60061;BME280;45933;51.336;12.612;2023-12-20T12:22:10;99231.91;;;9.12;52.81
60061;BME280;45933;51.336;12.612;2023-12-20T12:24:39;99230.16;;;9.14;53.63
60061;BME280;45933;51.336;12.612;2023-12-20T12:27:06;99231.00;;;9.14;53.19
60061;BME280;45933;51.336;12.612;2023-12-20T12:29:32;99234.34;;;9.24;53.15
60061;BME280;45933;51.336;12.612;2023-12-20T12:31:58;99217.75;;;9.33;52.98
60061;BME280;45933;51.336;12.612;2023-12-20T12:34:23;99211.59;;;9.38;52.65
60061;BME280;45933;51.336;12.612;2023-12-20T12:36:48;99214.19;;;9.38;52.85
60061;BME280;45933;51.336;12.612;2023-12-20T12:39:14;99216.84;;;9.35;52.19
60061;BME280;45933;51.336;12.612;2023-12-20T12:41:43;99217.75;;;9.33;52.27
60061;BME280;45933;51.336;12.612;2023-12-20T12:44:08;99207.28;;;9.39;52.99
60061;BME280;45933;51.336;12.612;2023-12-20T12:46:33;99194.25;;;9.39;52.82
60061;BME280;45933;51.336;12.612;2023-12-20T12:48:59;99199.53;;;9.33;52.56
60061;BME280;45933;51.336;12.612;2023-12-20T12:51:24;99209.94;;;9.34;52.67
60061;BME280;45933;51.336;12.612;2023-12-20T12:53:50;99197.88;;;9.29;52.40